Time;durP1;ratioP1;P1;durP2;ratioP2;P2;SDS_P1;SDS_P2;PMS_P1;PMS_P2;Temp;Humidity;BMP_temperature;BMP_pressure;BME280_temperature;BME280_humidity;BME280_pressure;Samples;Min_cycle;Max_cycle;Signal;HPM_P1;HPM_P2
2022/11/02 00:01:46;;;;;;;;;;;;;;;7.71;95.43;99768.19;10224429;23;20007;-78
2022/11/02 00:05:47;;;;;;;;;;;;;;;7.78;94.92;99770.03;10281492;23;19978;-78
2022/11/02 00:09:48;;;;;;;;;;;;;;;7.86;94.78;99773.56;10255368;23;19924;-78
2022/11/02 00:13:57;;;;;;;;;;;;;;;7.94;94.91;99775.41;10282056;23;20345;-79
2022/11/02 00:18:03;;;;;;;;;;;;;;;7.97;94.32;99781.47;10249564;23;20003;-79
2022/11/02 00:22:10;;;;;;;;;;;;;;;8.07;94.95;99782.44;10256048;23;20640;-79
2022/11/02 00:26:11;;;;;;;;;;;;;;;8.15;94.69;99778.22;10282945;23;19981;-79
2022/11/02 00:30:13;;;;;;;;;;;;;;;8.22;94.35;99774.84;10275847;23;19934;-79
2022/11/02 00:34:14;;;;;;;;;;;;;;;8.38;94.56;99769.03;10191767;23;19924;-78
2022/11/02 00:38:16;;;;;;;;;;;;;;;8.54;93.99;99769.19;10181053;23;19967;-78
2022/11/02 00:42:17;;;;;;;;;;;;;;;8.64;93.08;99773.63;10154734;23;19959;-78
2022/11/02 00:46:19;;;;;;;;;;;;;;;8.66;92.55;99774.50;10175322;23;20003;-78
2022/11/02 00:50:21;;;;;;;;;;;;;;;8.70;92.71;99763.31;10155892;23;19966;-78
2022/11/02 00:54:22;;;;;;;;;;;;;;;8.70;91.52;99763.31;10155453;23;19986;-78
2022/11/02 00:58:28;;;;;;;;;;;;;;;8.65;91.32;99765.88;10156804;23;20350;-79
2022/11/02 01:02:31;;;;;;;;;;;;;;;8.69;91.26;99769.34;10147767;23;19996;-78
2022/11/02 01:06:33;;;;;;;;;;;;;;;8.63;90.53;99772.75;10155790;23;19932;-78
2022/11/02 01:10:34;;;;;;;;;;;;;;;8.58;90.32;99768.34;10155366;23;19990;-78
2022/11/02 01:14:36;;;;;;;;;;;;;;;8.56;91.21;99765.75;10179171;23;20236;-78
2022/11/02 01:18:38;;;;;;;;;;;;;;;8.52;91.43;99764.00;10172858;23;19940;-78
2022/11/02 01:22:39;;;;;;;;;;;;;;;8.57;91.83;99764.91;10178416;23;19956;-78
2022/11/02 01:26:42;;;;;;;;;;;;;;;8.63;92.33;99758.94;10180377;23;19924;-78
2022/11/02 01:30:45;;;;;;;;;;;;;;;8.74;92.34;99755.56;10154883;23;19936;-79
2022/11/02 01:34:47;;;;;;;;;;;;;;;8.84;92.38;99758.25;10180685;23;19921;-78
2022/11/02 01:38:49;;;;;;;;;;;;;;;8.95;92.36;99751.41;10131439;23;19978;-79
2022/11/02 01:42:50;;;;;;;;;;;;;;;9.11;91.88;99752.41;10177990;23;20664;-78
2022/11/02 01:46:53;;;;;;;;;;;;;;;9.29;91.96;99753.41;10148568;23;19929;-78
2022/11/02 01:50:55;;;;;;;;;;;;;;;9.45;90.65;99753.50;10153891;23;19963;-78
2022/11/02 01:55:12;;;;;;;;;;;;;;;9.57;89.50;99740.63;10153344;23;19967;-78
2022/11/02 01:59:16;;;;;;;;;;;;;;;9.64;88.69;99737.19;10180554;23;20293;-79
2022/11/02 02:03:20;;;;;;;;;;;;;;;9.74;88.04;99751.06;10174147;23;19983;-79
2022/11/02 02:07:23;;;;;;;;;;;;;;;9.80;87.21;99748.50;10131651;23;19924;-79
2022/11/02 02:11:32;;;;;;;;;;;;;;;9.78;86.74;99740.72;10182499;23;20011;-79
2022/11/02 02:15:49;;;;;;;;;;;;;;;9.82;86.75;99751.97;10173004;23;19921;-79
2022/11/02 02:19:58;;;;;;;;;;;;;;;9.80;86.77;99743.31;10157738;23;19921;-79
2022/11/02 02:24:06;;;;;;;;;;;;;;;9.83;86.87;99748.50;10154387;23;19968;-80
2022/11/02 02:28:19;;;;;;;;;;;;;;;9.87;86.81;99745.06;10155302;23;20031;-78
2022/11/02 02:32:27;;;;;;;;;;;;;;;9.94;87.01;99745.09;10149085;23;19928;-79
2022/11/02 02:36:35;;;;;;;;;;;;;;;10.01;86.42;99743.38;10141670;23;19983;-78
2022/11/02 02:40:39;;;;;;;;;;;;;;;10.09;86.31;99746.91;10135633;23;20400;-78
2022/11/02 02:44:43;;;;;;;;;;;;;;;10.22;85.97;99759.06;10133958;23;20028;-77
2022/11/02 02:48:46;;;;;;;;;;;;;;;10.31;85.32;99755.63;10100899;23;19960;-79
2022/11/02 02:52:48;;;;;;;;;;;;;;;10.39;85.42;99764.28;10106566;23;20016;-77
2022/11/02 02:56:52;;;;;;;;;;;;;;;10.48;84.87;99766.06;10109828;23;19921;-79
2022/11/02 03:00:55;;;;;;;;;;;;;;;10.55;84.77;99766.06;10103687;23;20340;-78
2022/11/02 03:04:56;;;;;;;;;;;;;;;10.62;84.75;99755.69;10114981;23;20007;-78
2022/11/02 03:09:04;;;;;;;;;;;;;;;10.68;84.41;99761.75;10141674;23;19933;-79
2022/11/02 03:13:25;;;;;;;;;;;;;;;10.74;84.39;99763.47;10115030;23;19921;-78
2022/11/02 03:17:56;;;;;;;;;;;;;;;10.78;84.40;99765.25;10060133;23;19921;-79
2022/11/02 03:22:21;;;;;;;;;;;;;;;10.82;84.34;99770.44;10115757;23;19992;-78
2022/11/02 03:26:22;;;;;;;;;;;;;;;10.86;84.09;99771.28;10122566;23;20324;-79
2022/11/02 03:30:26;;;;;;;;;;;;;;;10.86;83.81;99766.09;10108633;23;20363;-78
2022/11/02 03:34:42;;;;;;;;;;;;;;;10.83;83.79;99779.97;10130823;23;19925;-78
2022/11/02 03:38:53;;;;;;;;;;;;;;;10.79;83.98;99774.78;10190109;23;19952;-78
2022/11/02 03:42:55;;;;;;;;;;;;;;;10.71;84.20;99784.25;10139706;23;20364;-79
2022/11/02 03:46:59;;;;;;;;;;;;;;;10.68;84.51;99782.53;10132031;23;19966;-79
2022/11/02 03:51:04;;;;;;;;;;;;;;;10.59;85.02;99787.69;10164507;23;19935;-79
2022/11/02 03:55:12;;;;;;;;;;;;;;;10.55;85.62;99786.84;10163053;23;19921;-78
2022/11/02 03:59:13;;;;;;;;;;;;;;;10.55;86.08;99791.16;10138793;23;20339;-78
2022/11/02 04:03:16;;;;;;;;;;;;;;;10.54;85.95;99786.84;10153939;23;19925;-78
2022/11/02 04:07:19;;;;;;;;;;;;;;;10.52;85.96;99801.53;10186792;23;20383;-80
2022/11/02 04:15:41;;;;;;;;;;;;;;;10.46;86.71;99810.19;10150665;23;20020;-79
2022/11/02 04:19:42;;;;;;;;;;;;;;;10.50;87.14;99814.53;10183864;23;19920;-78
2022/11/02 04:28:09;;;;;;;;;;;;;;;10.59;87.12;99824.06;10157452;23;19924;-78
2022/11/02 04:32:10;;;;;;;;;;;;;;;10.63;86.98;99831.00;10149397;23;19925;-79
2022/11/02 04:36:11;;;;;;;;;;;;;;;10.69;87.28;99824.94;10158000;23;19948;-78
2022/11/02 04:40:13;;;;;;;;;;;;;;;10.73;86.98;99837.06;10183528;23;19925;-78
2022/11/02 04:44:14;;;;;;;;;;;;;;;10.72;86.85;99836.22;10133288;23;19995;-78
2022/11/02 04:48:18;;;;;;;;;;;;;;;10.78;86.86;99846.63;10151026;23;20600;-80
2022/11/02 04:52:20;;;;;;;;;;;;;;;10.78;86.69;99857.03;10181058;23;19936;-78
2022/11/02 04:56:21;;;;;;;;;;;;;;;10.79;86.63;99866.53;10157821;23;19993;-78
2022/11/02 05:00:23;;;;;;;;;;;;;;;10.73;86.49;99873.44;10177095;23;20367;-79
2022/11/02 05:04:26;;;;;;;;;;;;;;;10.65;86.85;99867.38;10159531;23;20012;-79
2022/11/02 05:08:27;;;;;;;;;;;;;;;10.58;87.34;99872.53;10157891;23;19956;-79
2022/11/02 05:12:29;;;;;;;;;;;;;;;10.56;87.56;99876.84;10156200;23;20276;-79
2022/11/02 05:16:31;;;;;;;;;;;;;;;10.56;87.70;99888.97;10174761;23;19921;-78
2022/11/02 05:20:32;;;;;;;;;;;;;;;10.53;87.90;99895.00;10156963;23;20327;-79
2022/11/02 05:24:34;;;;;;;;;;;;;;;10.55;88.29;99893.28;10133017;23;20037;-79
2022/11/02 05:28:36;;;;;;;;;;;;;;;10.53;88.44;99889.81;10157770;23;19988;-79
2022/11/02 05:32:38;;;;;;;;;;;;;;;10.54;88.07;99890.69;10149915;23;19928;-79
2022/11/02 05:36:39;;;;;;;;;;;;;;;10.47;88.13;99895.00;10185776;23;19928;-81
2022/11/02 05:40:42;;;;;;;;;;;;;;;10.41;88.01;99907.06;10161786;23;19955;-81
2022/11/02 05:44:43;;;;;;;;;;;;;;;10.34;88.31;99900.13;10160495;23;19944;-82
2022/11/02 05:48:45;;;;;;;;;;;;;;;10.27;89.10;99913.09;10155029;23;19925;-82
2022/11/02 05:52:49;;;;;;;;;;;;;;;10.20;89.13;99903.47;10161231;23;19948;-82
2022/11/02 05:56:53;;;;;;;;;;;;;;;10.15;89.51;99915.56;10161786;23;20343;-81
2022/11/02 06:01:00;;;;;;;;;;;;;;;10.11;89.94;99913.81;10155667;23;19925;-81
2022/11/02 06:05:07;;;;;;;;;;;;;;;10.07;90.21;99926.78;10179618;23;19924;-81
2022/11/02 06:09:09;;;;;;;;;;;;;;;10.00;90.56;99920.66;10189635;23;20020;-81
2022/11/02 06:13:13;;;;;;;;;;;;;;;9.92;90.60;99932.72;10190702;23;19985;-81
2022/11/02 06:17:18;;;;;;;;;;;;;;;9.80;90.29;99941.28;10188852;23;19924;-82
2022/11/02 06:21:39;;;;;;;;;;;;;;;9.70;90.91;99942.09;10191548;23;20317;-81
2022/11/02 06:25:52;;;;;;;;;;;;;;;9.63;90.82;99959.28;10188942;23;19924;-80
2022/11/02 06:30:04;;;;;;;;;;;;;;;9.60;91.55;99958.41;10164258;23;20008;-81
2022/11/02 06:34:05;;;;;;;;;;;;;;;9.50;91.15;99960.03;10195389;23;20019;-80
2022/11/02 06:38:09;;;;;;;;;;;;;;;9.38;91.44;99965.13;10191877;23;19920;-82
2022/11/02 06:42:48;;;;;;;;;;;;;;;9.28;91.12;99982.28;10184079;23;19953;-85
2022/11/02 06:48:19;;;;;;;;;;;;;;;9.24;91.99;99984.84;10208539;23;19916;-83
2022/11/02 07:01:52;;;;;;;;;;;;;;;9.18;93.72;100013.28;10158923;23;19948;-79
2022/11/02 07:05:54;;;;;;;;;;;;;;;9.23;93.72;100021.97;10157450;23;20300;-79
2022/11/02 07:09:56;;;;;;;;;;;;;;;9.29;94.36;100032.41;10185241;23;19924;-81
2022/11/02 07:13:58;;;;;;;;;;;;;;;9.40;94.85;100038.56;10186238;23;20293;-83
2022/11/02 07:17:59;;;;;;;;;;;;;;;9.54;95.35;100043.91;10177215;23;20644;-81
2022/11/02 07:22:01;;;;;;;;;;;;;;;9.64;95.79;100046.59;10187571;23;20248;-82
2022/11/02 07:26:04;;;;;;;;;;;;;;;9.78;95.91;100059.69;10161894;23;19925;-81
2022/11/02 07:30:06;;;;;;;;;;;;;;;9.90;95.72;100053.75;10180535;23;20031;-81
2022/11/02 07:34:11;;;;;;;;;;;;;;;10.05;95.84;100058.19;10159242;23;20011;-81
2022/11/02 07:38:19;;;;;;;;;;;;;;;10.20;95.22;100068.69;10160544;23;19924;-80
2022/11/02 07:42:28;;;;;;;;;;;;;;;10.28;95.51;100067.94;10159263;23;19920;-81
2022/11/02 07:46:38;;;;;;;;;;;;;;;10.33;95.03;100072.31;10181697;23;19925;-81
2022/11/02 07:50:40;;;;;;;;;;;;;;;10.40;94.09;100082.72;10161314;23;19973;-83
2022/11/02 07:54:42;;;;;;;;;;;;;;;10.45;93.17;100085.38;10186199;23;19925;-82
2022/11/02 07:58:47;;;;;;;;;;;;;;;10.46;92.82;100088.00;10161415;23;20470;-81
2022/11/02 08:03:13;;;;;;;;;;;;;;;10.50;92.69;100084.53;10151622;23;19995;-81
2022/11/02 08:07:49;;;;;;;;;;;;;;;10.64;92.13;100088.97;10138532;23;19936;-84
2022/11/02 08:13:13;;;;;;;;;;;;;;;11.26;91.06;100101.41;10012172;23;20709;-79
2022/11/02 08:18:13;;;;;;;;;;;;;;;11.93;88.51;100101.66;9987867;23;19966;-82
2022/11/02 08:22:44;;;;;;;;;;;;;;;12.37;84.54;100094.72;9966614;23;19957;-79
2022/11/02 08:27:16;;;;;;;;;;;;;;;12.55;82.79;100104.25;9964951;23;19996;-78
2022/11/02 08:31:58;;;;;;;;;;;;;;;12.61;80.20;100100.81;9971307;23;19934;-79
2022/11/02 08:36:28;;;;;;;;;;;;;;;12.91;80.15;100100.72;9921507;23;19922;-80
2022/11/02 08:40:45;;;;;;;;;;;;;;;13.09;78.35;100105.00;9967109;23;19958;-79
2022/11/02 08:45:18;;;;;;;;;;;;;;;13.01;76.11;100101.56;9961278;23;19930;-79
2022/11/02 08:49:43;;;;;;;;;;;;;;;12.91;76.26;100105.06;10151245;23;20623;-79
2022/11/02 08:54:20;;;;;;;;;;;;;;;12.86;76.54;100114.66;10129936;23;20198;-79
2022/11/02 08:59:05;;;;;;;;;;;;;;;13.20;76.97;100116.31;10181634;23;19996;-80
2022/11/02 09:03:52;;;;;;;;;;;;;;;13.61;75.79;100102.22;10099526;23;19940;-80
2022/11/02 09:08:23;;;;;;;;;;;;;;;13.89;74.13;100101.19;10125307;23;19921;-80
2022/11/02 09:39:31;;;;;;;;;;;;;;;15.07;65.00;100114.09;10225796;23;19963;-81
2022/11/02 09:43:45;;;;;;;;;;;;;;;15.39;65.26;100118.97;10279847;23;19959;-80
2022/11/02 09:48:16;;;;;;;;;;;;;;;15.79;64.64;100122.84;10266146;23;20220;-80
2022/11/02 09:52:36;;;;;;;;;;;;;;;15.71;63.10;100126.44;10279987;23;19920;-80
2022/11/02 09:56:50;;;;;;;;;;;;;;;15.73;64.23;100123.81;10251407;23;19924;-80
2022/11/02 10:01:46;;;;;;;;;;;;;;;15.78;63.38;100123.75;10237308;23;19966;-80
2022/11/02 10:06:09;;;;;;;;;;;;;;;15.60;63.07;100117.88;10281136;23;19924;-80
2022/11/02 10:10:49;;;;;;;;;;;;;;;15.19;63.14;100120.09;10281948;23;20193;-80
2022/11/02 10:15:25;;;;;;;;;;;;;;;14.87;63.88;100123.06;10248783;23;19920;-81
2022/11/02 10:20:35;;;;;;;;;;;;;;;14.89;63.89;100108.22;10110996;23;20028;-80
2022/11/02 10:25:38;;;;;;;;;;;;;;;14.94;62.08;100095.97;10145031;23;19917;-80
2022/11/02 10:30:27;;;;;;;;;;;;;;;15.04;63.42;100100.22;10125805;23;19925;-80
2022/11/02 11:03:27;;;;;;;;;;;;;;;14.92;60.76;100098.59;10205422;23;19920;-80
2022/11/02 11:07:56;;;;;;;;;;;;;;;14.61;62.03;100089.34;10255605;23;19924;-80
2022/11/02 11:13:03;;;;;;;;;;;;;;;14.38;63.84;100092.13;10217755;23;19921;-80
2022/11/02 11:17:54;;;;;;;;;;;;;;;14.07;63.24;100100.19;10198012;23;20477;-79
2022/11/02 11:45:27;;;;;;;;;;;;;;;15.35;59.40;100070.19;10178481;23;19924;-81
2022/11/02 11:50:24;;;;;;;;;;;;;;;15.57;58.14;100062.91;9982245;23;20338;-81
2022/11/02 11:54:55;;;;;;;;;;;;;;;15.75;56.68;100061.81;9984137;23;19984;-81
2022/11/02 12:00:00;;;;;;;;;;;;;;;15.70;55.75;100055.78;9876236;24;19938;-81
2022/11/02 12:04:11;;;;;;;;;;;;;;;15.81;56.77;100055.63;9844763;23;20033;-81
2022/11/02 12:14:09;;;;;;;;;;;;;;;15.87;53.04;100043.31;9786194;24;19945;-79
2022/11/02 12:18:45;;;;;;;;;;;;;;;15.72;51.78;100040.91;9954914;23;20750;-80
2022/11/02 12:23:34;;;;;;;;;;;;;;;15.75;53.79;100035.63;10083970;23;19921;-81
2022/11/02 12:27:53;;;;;;;;;;;;;;;15.76;53.65;100026.00;10015956;23;19981;-81
2022/11/02 13:16:20;;;;;;;;;;;;;;;15.32;54.19;100010.03;10473341;22;19923;-79
2022/11/02 13:20:46;;;;;;;;;;;;;;;15.25;54.23;100005.75;10444458;22;19922;-79
2022/11/02 13:25:46;;;;;;;;;;;;;;;15.09;54.43;100002.50;10419153;22;19989;-79
2022/11/02 13:30:32;;;;;;;;;;;;;;;15.09;54.88;99992.06;10446379;22;20467;-79
2022/11/02 13:34:47;;;;;;;;;;;;;;;15.15;55.01;99991.09;10447346;22;19994;-79
2022/11/02 13:39:16;;;;;;;;;;;;;;;15.19;54.54;99991.91;10395250;22;19927;-79
2022/11/02 13:43:30;;;;;;;;;;;;;;;15.24;53.11;99984.84;10408752;22;19950;-79
2022/11/02 13:53:17;;;;;;;;;;;;;;;15.13;52.93;99973.69;10436334;22;19962;-79
2022/11/02 15:20:42;;;;;;;;;;;;;;;13.93;61.57;99911.44;10341302;23;19903;-82
2022/11/02 15:25:36;;;;;;;;;;;;;;;13.81;60.80;99912.41;10033073;23;20279;-81
2022/11/02 15:30:12;;;;;;;;;;;;;;;13.66;63.67;99915.19;10093423;23;20611;-81
2022/11/02 15:44:12;;;;;;;;;;;;;;;12.99;69.24;99906.06;10352950;22;19933;-82
2022/11/02 15:48:42;;;;;;;;;;;;;;;12.77;70.12;99901.00;10305892;22;19910;-81
2022/11/02 15:53:04;;;;;;;;;;;;;;;12.53;70.90;99891.53;10340625;22;19927;-82
2022/11/02 15:57:36;;;;;;;;;;;;;;;12.27;71.74;99873.41;10358977;22;19947;-82
2022/11/02 16:02:21;;;;;;;;;;;;;;;12.17;70.97;99869.09;10390260;22;19919;-83
2022/11/02 16:06:45;;;;;;;;;;;;;;;12.00;73.11;99863.94;10367428;22;19924;-82
2022/11/02 16:11:12;;;;;;;;;;;;;;;11.82;74.31;99869.19;10358349;23;19957;-82
2022/11/02 16:15:19;;;;;;;;;;;;;;;11.59;73.76;99853.59;10309942;22;19931;-80
2022/11/02 16:19:21;;;;;;;;;;;;;;;11.45;74.46;99858.78;10313139;23;19923;-81
2022/11/02 16:23:24;;;;;;;;;;;;;;;11.28;75.53;99852.72;10332043;23;19920;-81
2022/11/02 16:27:26;;;;;;;;;;;;;;;11.11;77.04;99852.72;10333755;23;20070;-80
2022/11/02 16:31:30;;;;;;;;;;;;;;;10.92;77.64;99851.81;10326318;22;19924;-82
2022/11/02 16:35:33;;;;;;;;;;;;;;;10.75;77.86;99844.00;10299836;23;19927;-81
2022/11/02 16:39:36;;;;;;;;;;;;;;;10.66;78.41;99845.72;10301589;23;20006;-80
2022/11/02 16:43:40;;;;;;;;;;;;;;;10.49;78.57;99850.88;10302435;22;20002;-80
2022/11/02 16:47:46;;;;;;;;;;;;;;;10.38;79.11;99855.13;10295688;23;19928;-82
2022/11/02 16:51:53;;;;;;;;;;;;;;;10.26;79.68;99848.19;10326824;23;19993;-81
2022/11/02 16:55:59;;;;;;;;;;;;;;;10.11;80.60;99845.50;10302132;23;20433;-80
2022/11/02 17:00:10;;;;;;;;;;;;;;;10.03;81.34;99844.56;10302613;23;20027;-80
2022/11/02 17:04:13;;;;;;;;;;;;;;;9.89;81.01;99845.38;10300003;23;20591;-80
2022/11/02 17:08:27;;;;;;;;;;;;;;;9.76;81.29;99843.56;10275218;23;19982;-81
2022/11/02 17:12:41;;;;;;;;;;;;;;;9.66;82.06;99844.34;10303856;23;19919;-82
2022/11/02 17:17:01;;;;;;;;;;;;;;;9.55;82.50;99846.03;10300500;23;20017;-81
2022/11/02 17:21:11;;;;;;;;;;;;;;;9.44;82.85;99848.53;10279253;23;20006;-81
2022/11/02 17:25:18;;;;;;;;;;;;;;;9.30;83.21;99860.50;10305718;23;19954;-80
2022/11/02 17:29:23;;;;;;;;;;;;;;;9.21;83.87;99860.44;10304779;23;19943;-80
2022/11/02 17:33:29;;;;;;;;;;;;;;;9.15;83.96;99862.97;10320143;22;20273;-81
2022/11/02 17:37:31;;;;;;;;;;;;;;;9.09;84.23;99864.66;10305262;23;19974;-81
2022/11/02 17:45:56;;;;;;;;;;;;;;;8.95;84.95;99868.84;10347069;22;19950;-81
2022/11/02 17:49:57;;;;;;;;;;;;;;;8.84;84.97;99872.19;10334453;22;19924;-81
2022/11/02 17:53:58;;;;;;;;;;;;;;;8.76;85.69;99874.69;10359076;22;19923;-81
2022/11/02 17:58:00;;;;;;;;;;;;;;;8.68;85.95;99869.44;10333501;22;19923;-80
2022/11/02 18:02:01;;;;;;;;;;;;;;;8.58;86.09;99871.88;10351707;22;19919;-80
2022/11/02 18:06:03;;;;;;;;;;;;;;;8.59;86.70;99864.13;10386528;22;19922;-80
2022/11/02 18:10:04;;;;;;;;;;;;;;;8.51;86.45;99854.56;10360090;22;19972;-81
2022/11/02 18:14:11;;;;;;;;;;;;;;;8.43;87.15;99855.31;10386227;22;19970;-80
2022/11/02 18:18:12;;;;;;;;;;;;;;;8.36;87.46;99857.84;10327160;22;19950;-80
2022/11/02 18:22:14;;;;;;;;;;;;;;;8.35;87.52;99851.78;10378721;22;20026;-80
2022/11/02 18:26:15;;;;;;;;;;;;;;;8.31;87.21;99849.13;10333085;22;19942;-79
2022/11/02 18:30:17;;;;;;;;;;;;;;;8.21;87.76;99842.97;10349820;22;19970;-80
2022/11/02 18:34:18;;;;;;;;;;;;;;;8.16;88.37;99834.28;10366996;22;19935;-83
2022/11/02 18:38:20;;;;;;;;;;;;;;;8.11;88.05;99842.00;10394881;22;19919;-83
2022/11/02 18:42:22;;;;;;;;;;;;;;;8.06;89.03;99837.59;10423419;22;19927;-82
2022/11/02 18:46:24;;;;;;;;;;;;;;;7.95;88.60;99834.88;10426951;22;19923;-83
2022/11/02 18:50:31;;;;;;;;;;;;;;;7.87;88.87;99832.19;10421597;22;19925;-83
2022/11/02 18:54:32;;;;;;;;;;;;;;;7.83;89.79;99830.41;10409079;22;19923;-83
2022/11/02 18:58:37;;;;;;;;;;;;;;;7.79;89.99;99831.22;10438724;22;19910;-86
2022/11/02 19:02:53;;;;;;;;;;;;;;;7.75;90.17;99833.75;10408927;22;19903;-83
2022/11/02 19:11:31;;;;;;;;;;;;;;;7.66;90.57;99818.09;10410107;22;19907;-85
2022/11/02 19:15:33;;;;;;;;;;;;;;;7.66;91.01;99806.03;10412047;22;19904;-82
2022/11/02 19:19:45;;;;;;;;;;;;;;;7.64;90.99;99800.00;10397276;22;19950;-80
2022/11/02 19:23:47;;;;;;;;;;;;;;;7.59;90.82;99796.47;10343280;22;19919;-80
2022/11/02 19:27:48;;;;;;;;;;;;;;;7.63;91.25;99787.91;10390539;22;19994;-80
2022/11/02 19:31:49;;;;;;;;;;;;;;;7.56;91.31;99781.81;10358543;22;19923;-81
2022/11/02 19:35:55;;;;;;;;;;;;;;;7.49;91.35;99782.56;10393836;22;20313;-82
2022/11/02 19:39:56;;;;;;;;;;;;;;;7.47;91.95;99781.66;10413592;22;19922;-85
2022/11/02 19:43:58;;;;;;;;;;;;;;;7.45;91.69;99783.34;10386952;22;19910;-86
2022/11/02 19:48:01;;;;;;;;;;;;;;;7.47;91.49;99773.03;10386776;22;19926;-85
2022/11/02 19:52:03;;;;;;;;;;;;;;;7.44;91.65;99779.03;10361461;22;19918;-85
2022/11/02 19:56:08;;;;;;;;;;;;;;;7.47;91.85;99785.97;10386503;22;19907;-85
2022/11/02 20:00:15;;;;;;;;;;;;;;;7.40;91.83;99778.97;10382501;22;19903;-83
2022/11/02 20:04:17;;;;;;;;;;;;;;;7.37;91.60;99787.56;10361006;22;19903;-84
2022/11/02 20:08:19;;;;;;;;;;;;;;;7.29;91.73;99776.22;10387597;22;19910;-88
2022/11/02 20:12:20;;;;;;;;;;;;;;;7.30;92.16;99766.75;10412453;22;19904;-87
2022/11/02 20:16:36;;;;;;;;;;;;;;;7.31;92.49;99761.63;10385793;22;19920;-86
2022/11/02 20:20:38;;;;;;;;;;;;;;;7.33;92.81;99767.66;10412419;22;19917;-85
2022/11/02 20:24:42;;;;;;;;;;;;;;;7.38;92.74;99760.88;10437786;22;19903;-85
2022/11/02 20:28:46;;;;;;;;;;;;;;;7.38;92.81;99763.47;10363994;22;19966;-80
2022/11/02 20:32:54;;;;;;;;;;;;;;;7.39;92.90;99765.19;10374449;22;19903;-84
2022/11/02 20:36:56;;;;;;;;;;;;;;;7.40;93.01;99763.47;10411381;22;19903;-85
2022/11/02 20:46:48;;;;;;;;;;;;;;;7.35;93.15;99750.47;10431390;22;20325;-81
2022/11/02 20:51:05;;;;;;;;;;;;;;;7.30;93.45;99744.38;10400190;22;19903;-82
2022/11/02 20:55:10;;;;;;;;;;;;;;;7.28;93.36;99743.50;10415567;22;19945;-82
2022/11/02 20:59:12;;;;;;;;;;;;;;;7.24;93.45;99742.59;10411801;22;19911;-82
2022/11/02 21:03:14;;;;;;;;;;;;;;;7.21;93.28;99741.69;10434137;22;19907;-82
2022/11/02 21:07:16;;;;;;;;;;;;;;;7.19;93.46;99741.66;10414091;22;19934;-82
2022/11/02 21:16:26;;;;;;;;;;;;;;;7.18;93.66;99737.34;10412318;22;19923;-81
2022/11/02 21:21:01;;;;;;;;;;;;;;;7.13;93.41;99735.53;10207311;23;19905;-80
2022/11/02 21:25:25;;;;;;;;;;;;;;;7.11;93.85;99732.91;10202509;23;19924;-82
2022/11/02 21:29:41;;;;;;;;;;;;;;;7.12;93.73;99731.22;10180803;23;19905;-80
2022/11/02 21:39:14;;;;;;;;;;;;;;;7.12;94.49;99726.91;10253732;23;19904;-84
2022/11/02 21:49:05;;;;;;;;;;;;;;;7.12;94.81;99734.66;10284788;23;19904;-83
2022/11/02 21:53:14;;;;;;;;;;;;;;;7.14;94.98;99716.59;10251108;23;19924;-82
2022/11/02 21:57:15;;;;;;;;;;;;;;;7.16;94.88;99715.78;10383154;22;19937;-82
2022/11/02 22:05:56;;;;;;;;;;;;;;;7.18;95.00;99711.53;10426052;22;19922;-83
2022/11/02 22:09:58;;;;;;;;;;;;;;;7.16;94.65;99709.75;10399669;22;19919;-82
2022/11/02 22:14:00;;;;;;;;;;;;;;;7.15;94.45;99708.00;10398328;22;19919;-82
2022/11/02 22:18:04;;;;;;;;;;;;;;;7.08;94.09;99698.44;10420869;22;19915;-81
2022/11/02 22:22:06;;;;;;;;;;;;;;;7.07;94.28;99686.38;10395479;22;19919;-82
2022/11/02 22:26:10;;;;;;;;;;;;;;;7.08;94.22;99682.97;10402862;22;19946;-81
2022/11/02 22:30:11;;;;;;;;;;;;;;;7.04;94.36;99686.34;10420365;22;19919;-82
2022/11/02 22:34:14;;;;;;;;;;;;;;;7.01;94.52;99683.72;10392354;22;20262;-81
2022/11/02 22:42:52;;;;;;;;;;;;;;;6.93;94.49;99668.97;10349128;22;19923;-81
2022/11/02 22:46:53;;;;;;;;;;;;;;;6.92;94.39;99666.38;10411578;22;20433;-81
2022/11/02 22:50:55;;;;;;;;;;;;;;;6.92;94.17;99656.06;10385147;22;19919;-81
2022/11/02 22:54:57;;;;;;;;;;;;;;;6.87;93.84;99652.53;10410732;22;19946;-81
2022/11/02 22:58:58;;;;;;;;;;;;;;;6.76;93.43;99648.94;10383555;22;19945;-82
2022/11/02 23:03:00;;;;;;;;;;;;;;;6.71;93.81;99641.13;10380608;22;19919;-82
2022/11/02 23:07:02;;;;;;;;;;;;;;;6.65;94.01;99641.03;10411093;22;19919;-82
2022/11/02 23:11:22;;;;;;;;;;;;;;;6.56;94.06;99646.03;10377099;22;19930;-81
2022/11/02 23:15:24;;;;;;;;;;;;;;;6.51;94.34;99645.13;10366003;22;19923;-81
2022/11/02 23:19:28;;;;;;;;;;;;;;;6.49;94.31;99639.94;10370237;22;19919;-81
2022/11/02 23:32:27;;;;;;;;;;;;;;;6.34;94.32;99635.38;10399000;22;19930;-82
2022/11/02 23:36:28;;;;;;;;;;;;;;;6.38;95.09;99638.88;10375951;22;19965;-81
2022/11/02 23:40:30;;;;;;;;;;;;;;;6.35;95.31;99631.97;10384589;22;19957;-82
2022/11/02 23:44:32;;;;;;;;;;;;;;;6.36;95.37;99631.13;10367778;22;20211;-82
2022/11/02 23:48:33;;;;;;;;;;;;;;;6.38;95.46;99632.84;10367927;22;20393;-82
2022/11/02 23:56:55;;;;;;;;;;;;;;;6.36;95.23;99622.53;10405512;22;19919;-81
